Time;durP1;ratioP1;P1;durP2;ratioP2;P2;SDS_P1;SDS_P2;PMS_P1;PMS_P2;Temp;Humidity;BMP_temperature;BMP_pressure;BME280_temperature;BME280_humidity;BME280_pressure;Samples;Min_cycle;Max_cycle;Signal;HPM_P1;HPM_P2
2020/12/24 00:00:06;;;;;;;50.20;23.57;;;;;;;0.94;100.00;99987.14;1779795;78;21081;-44
2020/12/24 00:02:36;;;;;;;39.38;20.75;;;;;;;0.92;100.00;99976.99;1780616;79;23004;-49
2020/12/24 00:09:08;;;;;;;43.23;20.12;;;;;;;0.98;100.00;99974.28;1732379;79;22818;-54
2020/12/24 00:11:37;;;;;;;36.93;20.48;;;;;;;0.92;100.00;99974.34;1695560;82;20981;-54
2020/12/24 00:14:05;;;;;;;40.43;21.27;;;;;;;0.92;100.00;99976.11;1693792;82;21723;-52
2020/12/24 00:16:33;;;;;;;36.85;21.20;;;;;;;0.89;100.00;99973.02;1692490;82;21057;-52
2020/12/24 00:19:01;;;;;;;39.98;21.97;;;;;;;0.89;100.00;99966.38;1692343;82;21323;-55
2020/12/24 00:21:28;;;;;;;39.67;21.00;;;;;;;0.90;100.00;99969.47;1701197;82;21147;-50
2020/12/24 00:23:56;;;;;;;40.98;22.75;;;;;;;0.93;100.00;99970.78;1692973;82;21648;-50
2020/12/24 00:26:23;;;;;;;40.80;22.45;;;;;;;0.91;100.00;99967.27;1693911;82;21410;-46
2020/12/24 00:28:51;;;;;;;41.77;22.58;;;;;;;0.93;100.00;99969.46;1693125;82;21450;-54
2020/12/24 00:31:19;;;;;;;40.55;20.92;;;;;;;0.95;100.00;99962.34;1693839;82;20994;-54
2020/12/24 00:33:46;;;;;;;40.12;19.82;;;;;;;0.94;100.00;99961.92;1694589;82;21017;-49
2020/12/24 00:36:15;;;;;;;36.35;20.37;;;;;;;0.97;100.00;99954.39;1693664;82;21021;-46
2020/12/24 00:38:42;;;;;;;38.38;20.85;;;;;;;0.96;100.00;99948.20;1693469;82;22247;-46
2020/12/24 00:41:10;;;;;;;39.92;21.10;;;;;;;0.96;100.00;99942.89;1694121;82;21041;-46
2020/12/24 00:43:37;;;;;;;37.85;19.82;;;;;;;0.97;100.00;99947.30;1694089;82;21141;-46
2020/12/24 00:46:05;;;;;;;42.30;20.32;;;;;;;0.98;100.00;99945.53;1697490;82;21156;-46
2020/12/24 00:48:35;;;;;;;39.42;20.95;;;;;;;0.99;100.00;99949.48;1694203;82;21502;-46
2020/12/24 00:51:03;;;;;;;39.80;20.37;;;;;;;0.97;100.00;99952.62;1696046;82;22181;-45
2020/12/24 00:53:31;;;;;;;41.55;21.68;;;;;;;0.96;100.00;99964.14;1694750;82;21037;-45
2020/12/24 00:55:59;;;;;;;42.30;21.70;;;;;;;0.96;100.00;99960.57;1695517;82;20998;-45
2020/12/24 00:58:27;;;;;;;40.95;20.65;;;;;;;0.94;100.00;99964.58;1694216;82;21561;-44
2020/12/24 01:00:55;;;;;;;43.58;21.35;;;;;;;0.95;100.00;99972.09;1697867;82;21176;-50
2020/12/24 01:03:22;;;;;;;45.58;22.22;;;;;;;0.95;100.00;99968.98;1692822;82;21235;-46
2020/12/24 01:05:50;;;;;;;43.20;23.05;;;;;;;0.96;100.00;99970.78;1693830;82;21136;-45
2020/12/24 01:08:18;;;;;;;46.25;23.90;;;;;;;0.96;100.00;99960.16;1690660;82;21175;-45
2020/12/24 01:10:46;;;;;;;45.23;23.57;;;;;;;0.96;100.00;99972.11;1685453;82;21026;-52
2020/12/24 01:13:13;;;;;;;47.58;23.90;;;;;;;0.96;100.00;99962.81;1687091;82;21594;-44
2020/12/24 01:15:43;;;;;;;46.55;23.95;;;;;;;0.97;100.00;99968.55;1684462;82;21225;-47
2020/12/24 01:18:10;;;;;;;40.50;21.40;;;;;;;0.96;100.00;99964.14;1687197;82;21188;-45
2020/12/24 01:20:38;;;;;;;39.27;21.60;;;;;;;0.98;100.00;99971.63;1687321;82;21191;-52
2020/12/24 01:23:05;;;;;;;39.45;20.75;;;;;;;0.97;100.00;99979.17;1685652;82;21685;-52
2020/12/24 01:25:34;;;;;;;38.38;20.43;;;;;;;0.98;100.00;99983.58;1685198;82;20975;-49
2020/12/24 01:28:02;;;;;;;41.10;20.88;;;;;;;0.97;100.00;99976.52;1685375;82;21557;-52
2020/12/24 01:30:29;;;;;;;32.88;17.40;;;;;;;0.98;100.00;99980.05;1687892;82;21029;-54
2020/12/24 01:32:57;;;;;;;34.98;18.57;;;;;;;0.99;100.00;99976.05;1687105;82;21140;-54
2020/12/24 01:35:25;;;;;;;30.52;16.42;;;;;;;0.99;100.00;99969.41;1685491;82;21159;-52
2020/12/24 01:37:53;;;;;;;35.28;18.17;;;;;;;0.99;100.00;99973.39;1686041;82;21006;-51
2020/12/24 01:40:22;;;;;;;29.90;16.85;;;;;;;0.99;100.00;99977.37;1682745;82;21382;-47
2020/12/24 01:42:50;;;;;;;33.75;16.62;;;;;;;0.98;100.00;99970.30;1685776;82;21010;-45
2020/12/24 01:45:17;;;;;;;31.70;17.30;;;;;;;1.00;100.00;99964.52;1684942;82;21026;-44
2020/12/24 01:47:46;;;;;;;34.33;17.98;;;;;;;1.00;100.00;99964.52;1686111;82;21140;-52
2020/12/24 01:50:16;;;;;;;32.55;17.15;;;;;;;1.01;100.00;99966.73;1684896;82;21180;-54
2020/12/24 01:53:29;;;;;;;40.35;18.40;;;;;;;1.02;100.00;99969.39;1689257;83;21988;-52
2020/12/24 01:55:57;;;;;;;37.45;19.05;;;;;;;1.02;100.00;99966.73;1683520;83;21624;-49
2020/12/24 01:58:25;;;;;;;36.85;17.70;;;;;;;1.03;100.00;99964.96;1684400;82;21617;-50
2020/12/24 02:00:53;;;;;;;34.23;17.87;;;;;;;1.02;100.00;99969.39;1684955;83;21152;-50
2020/12/24 02:03:20;;;;;;;36.65;18.67;;;;;;;1.04;100.00;99970.25;1692550;82;21149;-50
2020/12/24 02:05:48;;;;;;;37.90;19.23;;;;;;;1.05;100.00;99964.03;1684045;83;21211;-46
2020/12/24 02:08:16;;;;;;;42.05;19.23;;;;;;;1.06;100.00;99962.26;1694172;82;21168;-48
2020/12/24 02:10:44;;;;;;;41.55;20.12;;;;;;;1.05;100.00;99958.73;1694569;82;21637;-49
2020/12/24 02:13:12;;;;;;;40.63;19.75;;;;;;;1.08;100.00;99962.27;1693957;82;21006;-46
2020/12/24 02:15:40;;;;;;;40.73;20.50;;;;;;;1.06;100.00;99959.61;1694777;82;20990;-46
2020/12/24 02:18:09;;;;;;;41.65;19.60;;;;;;;1.07;100.00;99960.52;1695901;82;22268;-49
2020/12/24 02:20:44;;;;;;;38.65;19.00;;;;;;;1.03;100.00;99960.53;1698382;82;21507;-50
2020/12/24 02:23:12;;;;;;;38.60;19.12;;;;;;;1.03;100.00;99959.20;1692997;82;21014;-46
2020/12/24 02:25:40;;;;;;;39.25;18.30;;;;;;;1.02;100.00;99956.11;1693510;82;21148;-47
2020/12/24 02:28:09;;;;;;;41.68;18.73;;;;;;;1.03;100.00;99957.88;1693378;82;21631;-47
2020/12/24 02:30:38;;;;;;;35.10;18.25;;;;;;;1.03;100.00;99949.91;1695171;82;21569;-53
2020/12/24 02:33:06;;;;;;;29.30;14.45;;;;;;;1.02;100.00;99948.15;1695529;82;21138;-53
2020/12/24 02:35:33;;;;;;;31.02;17.12;;;;;;;1.02;100.00;99952.13;1693648;82;21680;-45
2020/12/24 02:38:02;;;;;;;32.03;16.75;;;;;;;1.01;100.00;99954.36;1694386;82;21148;-49
2020/12/24 02:40:29;;;;;;;31.97;16.52;;;;;;;0.98;100.00;99947.73;1699001;82;21017;-49
2020/12/24 02:42:57;;;;;;;27.90;16.10;;;;;;;1.00;100.00;99954.34;1695386;82;22123;-55
2020/12/24 02:45:25;;;;;;;33.63;16.65;;;;;;;0.98;100.00;99954.38;1693438;82;21172;-44
2020/12/24 02:47:52;;;;;;;32.60;16.20;;;;;;;0.97;100.00;99955.27;1697348;82;21620;-54
2020/12/24 02:50:20;;;;;;;33.42;17.30;;;;;;;0.98;100.00;99954.38;1696126;82;21538;-51
2020/12/24 02:52:48;;;;;;;32.10;16.40;;;;;;;0.96;100.00;99953.52;1693648;82;21156;-52
2020/12/24 02:55:16;;;;;;;31.23;15.90;;;;;;;0.97;100.00;99961.03;1693489;82;22238;-46
2020/12/24 02:57:43;;;;;;;34.83;15.98;;;;;;;0.96;100.00;99960.16;1693225;81;21544;-49
2020/12/24 03:00:12;;;;;;;30.52;14.70;;;;;;;0.98;100.00;99956.16;1694106;82;21116;-44
2020/12/24 03:02:40;;;;;;;34.48;16.75;;;;;;;0.98;100.00;99959.69;1694160;82;21034;-45
2020/12/24 03:05:08;;;;;;;30.32;15.75;;;;;;;1.01;100.00;99972.04;1693069;82;21148;-43
2020/12/24 03:07:36;;;;;;;31.93;15.18;;;;;;;1.01;100.00;99959.67;1694171;82;21386;-48
2020/12/24 03:10:06;;;;;;;35.58;16.52;;;;;;;1.01;100.00;99963.66;1693595;82;21207;-48
2020/12/24 03:12:34;;;;;;;36.05;17.60;;;;;;;1.02;100.00;99958.77;1697988;82;21487;-49
2020/12/24 03:15:02;;;;;;;31.42;17.35;;;;;;;1.03;100.00;99959.20;1696275;82;21547;-43
2020/12/24 03:17:30;;;;;;;34.23;16.48;;;;;;;1.03;100.00;99957.88;1695448;82;21166;-45
2020/12/24 03:20:00;;;;;;;32.10;16.50;;;;;;;1.03;100.00;99955.22;1695001;82;21188;-53
2020/12/24 03:22:28;;;;;;;36.30;17.85;;;;;;;1.02;100.00;99952.13;1695175;82;21599;-45
2020/12/24 03:24:55;;;;;;;33.60;17.35;;;;;;;1.03;100.00;99943.27;1694219;82;21013;-45
2020/12/24 03:27:23;;;;;;;35.05;17.20;;;;;;;1.03;100.00;99940.61;1695883;82;21021;-45
2020/12/24 03:29:51;;;;;;;39.05;19.27;;;;;;;1.03;100.00;99943.72;1695990;82;22032;-45
2020/12/24 03:32:19;;;;;;;32.25;17.00;;;;;;;1.03;100.00;99940.61;1695077;82;21381;-45
2020/12/24 03:34:47;;;;;;;32.80;17.50;;;;;;;1.03;100.00;99936.62;1695600;82;21123;-53
2020/12/24 03:37:14;;;;;;;41.92;20.25;;;;;;;1.04;100.00;99933.52;1694479;82;21633;-46
2020/12/24 03:39:42;;;;;;;39.67;18.20;;;;;;;1.01;100.00;99934.45;1693928;82;21037;-43
2020/12/24 03:42:10;;;;;;;35.80;18.92;;;;;;;1.01;100.00;99926.48;1696686;82;21150;-45
2020/12/24 03:44:37;;;;;;;36.93;18.77;;;;;;;1.01;100.00;99927.80;1696383;82;21685;-46
2020/12/24 03:47:05;;;;;;;35.83;18.27;;;;;;;1.01;100.00;99930.46;1695664;82;20998;-45
2020/12/24 03:49:33;;;;;;;36.63;18.62;;;;;;;0.99;100.00;99922.94;1695091;82;21181;-54
2020/12/24 03:52:01;;;;;;;41.20;21.57;;;;;;;1.00;100.00;99923.36;1693953;82;20989;-53
2020/12/24 03:54:28;;;;;;;38.08;17.67;;;;;;;1.03;100.00;99922.02;1696995;82;20957;-54
2020/12/24 03:56:55;;;;;;;36.85;18.73;;;;;;;1.07;100.00;99923.34;1696665;82;21541;-43
2020/12/24 03:59:23;;;;;;;31.45;16.45;;;;;;;1.07;100.00;99916.70;1698737;82;21138;-48
2020/12/24 04:01:51;;;;;;;33.95;17.30;;;;;;;1.09;100.00;99914.89;1695583;82;21680;-49
2020/12/24 04:04:18;;;;;;;35.35;18.98;;;;;;;1.08;100.00;99910.48;1693826;82;21159;-49
2020/12/24 04:06:47;;;;;;;32.38;17.48;;;;;;;1.03;100.00;99914.05;1693232;82;21422;-47
2020/12/24 04:09:14;;;;;;;38.40;19.48;;;;;;;1.03;100.00;99912.73;1686344;82;22261;-46
2020/12/24 04:11:43;;;;;;;41.28;19.55;;;;;;;1.03;100.00;99912.73;1680746;83;21197;-46
2020/12/24 04:14:10;;;;;;;31.10;16.07;;;;;;;1.02;100.00;99906.99;1680432;82;21156;-46
2020/12/24 04:16:38;;;;;;;37.05;19.30;;;;;;;1.01;100.00;99905.66;1681189;82;21105;-53
2020/12/24 04:19:06;;;;;;;32.60;16.70;;;;;;;1.00;100.00;99912.74;1680963;83;21146;-54
2020/12/24 04:21:34;;;;;;;31.90;16.23;;;;;;;1.00;100.00;99901.24;1679674;82;21708;-49
2020/12/24 04:24:01;;;;;;;33.10;15.80;;;;;;;1.00;100.00;99903.90;1680801;83;21558;-46
2020/12/24 04:26:29;;;;;;;28.15;14.85;;;;;;;0.99;100.00;99909.66;1681366;82;21176;-46
2020/12/24 04:28:57;;;;;;;35.98;17.12;;;;;;;0.96;100.00;99903.07;1680030;83;21124;-45
2020/12/24 04:31:24;;;;;;;31.35;15.85;;;;;;;0.95;100.00;99898.62;1679954;83;21159;-45
2020/12/24 04:33:52;;;;;;;29.55;15.13;;;;;;;0.95;100.00;99898.62;1684369;83;21346;-46
2020/12/24 04:36:20;;;;;;;30.95;16.02;;;;;;;0.96;100.00;99895.10;1683170;82;21150;-54
2020/12/24 04:38:48;;;;;;;30.72;14.23;;;;;;;0.93;100.00;99899.55;1680897;83;21133;-49
2020/12/24 04:41:15;;;;;;;29.82;15.68;;;;;;;0.91;100.00;99898.24;1679385;83;21152;-49
2020/12/24 04:43:43;;;;;;;28.57;14.68;;;;;;;0.89;100.00;99893.38;1681369;83;21165;-49
2020/12/24 04:46:12;;;;;;;29.35;15.32;;;;;;;0.88;100.00;99891.63;1685523;82;21374;-45
2020/12/24 04:48:40;;;;;;;29.95;15.25;;;;;;;0.87;100.00;99895.17;1682804;82;21674;-54
2020/12/24 04:51:10;;;;;;;30.37;15.25;;;;;;;0.86;100.00;99898.73;1679291;82;21143;-44
2020/12/24 04:53:38;;;;;;;31.45;15.90;;;;;;;0.83;100.00;99896.09;1618566;83;21200;-43
2020/12/24 04:56:07;;;;;;;31.75;16.27;;;;;;;0.84;100.00;99892.53;1682780;83;21653;-45
2020/12/24 04:58:36;;;;;;;31.68;15.60;;;;;;;0.83;100.00;99896.09;1684605;82;21383;-45
2020/12/24 05:01:03;;;;;;;33.90;16.55;;;;;;;0.83;100.00;99893.44;1680995;82;21153;-46
2020/12/24 05:03:31;;;;;;;33.13;15.23;;;;;;;0.86;100.00;99890.77;1685477;82;21160;-46
2020/12/24 05:05:58;;;;;;;30.08;15.48;;;;;;;0.88;100.00;99891.63;1681201;83;21132;-47
2020/12/24 05:08:26;;;;;;;27.17;13.58;;;;;;;0.88;100.00;99890.30;1679447;83;21162;-56
2020/12/24 05:11:04;;;;;;;32.48;15.65;;;;;;;0.90;100.00;99892.47;1680016;83;21386;-45
2020/12/24 05:13:32;;;;;;;30.30;15.28;;;;;;;0.90;100.00;99894.25;1683725;83;21168;-46
2020/12/24 05:16:15;;;;;;;31.07;15.15;;;;;;;0.90;100.00;99897.78;1682389;83;21149;-44
2020/12/24 05:18:43;;;;;;;30.65;16.25;;;;;;;0.89;100.00;99903.99;1681629;82;21563;-53
2020/12/24 05:21:11;;;;;;;27.00;14.10;;;;;;;0.90;100.00;99894.25;1683671;83;21484;-53
2020/12/24 05:23:38;;;;;;;31.93;14.95;;;;;;;0.91;100.00;99900.02;1684602;83;22280;-51
2020/12/24 05:26:19;;;;;;;29.65;15.50;;;;;;;0.90;100.00;99891.15;1684994;82;21581;-55
2020/12/24 05:28:47;;;;;;;28.12;14.03;;;;;;;0.91;100.00;99890.28;1684591;83;21665;-45
2020/12/24 05:31:33;;;;;;;35.48;16.20;;;;;;;0.91;100.00;99885.42;1684344;82;21152;-47
2020/12/24 05:34:19;;;;;;;30.62;14.50;;;;;;;0.99;100.00;99889.75;1887366;72;22707;-51
2020/12/24 05:36:47;;;;;;;28.30;14.07;;;;;;;0.96;100.00;99887.14;1852767;76;21507;-58
2020/12/24 05:39:15;;;;;;;25.05;13.22;;;;;;;0.96;100.00;99884.48;1881451;74;22254;-59
2020/12/24 05:41:43;;;;;;;31.12;15.08;;;;;;;0.96;100.00;99889.80;1881251;74;20984;-57
2020/12/24 05:44:12;;;;;;;27.85;13.72;;;;;;;0.95;100.00;99894.64;1881135;74;20981;-54
2020/12/24 05:46:47;;;;;;;27.93;13.50;;;;;;;0.96;100.00;99905.72;1881858;74;20964;-45
2020/12/24 05:49:23;;;;;;;29.40;14.40;;;;;;;1.02;100.00;99898.15;1790401;76;22771;-46
2020/12/24 05:54:34;;;;;;;26.95;12.95;;;;;;;1.04;100.00;99907.84;1835423;76;22632;-52
2020/12/24 05:57:02;;;;;;;25.90;12.98;;;;;;;0.99;100.00;99908.33;1788043;79;21438;-54
2020/12/24 05:59:31;;;;;;;25.60;13.45;;;;;;;1.00;100.00;99909.20;1752485;80;21556;-45
2020/12/24 06:02:17;;;;;;;28.80;14.60;;;;;;;1.00;100.00;99904.77;1754254;80;21023;-52
2020/12/24 06:04:48;;;;;;;29.27;15.40;;;;;;;0.99;100.00;99904.34;1769017;80;21046;-51
2020/12/24 06:07:32;;;;;;;28.05;13.70;;;;;;;0.98;100.00;99906.58;1784235;78;21002;-51
2020/12/24 06:10:09;;;;;;;30.20;15.15;;;;;;;0.97;100.00;99899.52;1770536;80;21906;-51
2020/12/24 06:12:49;;;;;;;29.37;14.58;;;;;;;0.98;100.00;99891.97;1779766;79;21191;-53
2020/12/24 06:15:17;;;;;;;28.67;14.30;;;;;;;0.97;100.00;99895.53;1748078;80;21047;-52
2020/12/24 06:17:47;;;;;;;25.52;14.38;;;;;;;0.97;100.00;99879.59;1750857;80;21019;-51
2020/12/24 06:20:18;;;;;;;35.43;16.42;;;;;;;0.99;100.00;99884.44;1779513;79;21145;-45
2020/12/24 06:22:46;;;;;;;29.82;15.30;;;;;;;1.00;100.00;99872.91;1782892;78;21509;-46
2020/12/24 06:25:14;;;;;;;35.50;17.30;;;;;;;1.05;100.00;99868.44;1775483;78;21415;-57
2020/12/24 06:27:50;;;;;;;34.80;16.77;;;;;;;1.07;100.00;99863.13;1751784;80;21553;-56
2020/12/24 06:30:26;;;;;;;35.88;17.73;;;;;;;1.10;100.00;99866.19;1756582;80;21162;-47
2020/12/24 06:32:55;;;;;;;36.85;18.20;;;;;;;1.10;100.00;99878.14;1750585;80;21600;-46
2020/12/24 06:35:39;;;;;;;34.30;16.75;;;;;;;1.11;100.00;99879.89;1755645;80;21557;-47
2020/12/24 06:38:09;;;;;;;36.50;18.57;;;;;;;1.13;100.00;99872.81;1744041;79;21557;-58
2020/12/24 06:40:39;;;;;;;35.43;18.65;;;;;;;1.12;100.00;99871.03;1763536;80;21171;-51
2020/12/24 06:43:08;;;;;;;35.63;18.37;;;;;;;1.14;100.00;99866.60;1765412;80;21146;-56
2020/12/24 06:45:40;;;;;;;32.78;16.00;;;;;;;1.14;100.00;99869.26;1767149;80;20978;-59
2020/12/24 06:48:24;;;;;;;31.33;16.42;;;;;;;1.19;100.00;99860.80;1859647;74;22477;-57
2020/12/24 06:51:00;;;;;;;33.08;15.78;;;;;;;1.09;100.00;99864.44;1757253;79;21140;-53
2020/12/24 06:53:38;;;;;;;36.20;18.23;;;;;;;1.09;100.00;99857.80;1736988;80;21507;-63
2020/12/24 06:56:20;;;;;;;36.03;19.73;;;;;;;1.09;100.00;99861.78;1765920;79;21148;-61
2020/12/24 06:59:03;;;;;;;44.95;23.12;;;;;;;1.10;100.00;99860.88;1765580;79;21009;-52
2020/12/24 07:01:35;;;;;;;45.95;23.42;;;;;;;1.08;100.00;99866.66;1764943;79;21029;-57
2020/12/24 07:04:04;;;;;;;;;;;;;;;1.09;100.00;99863.98;1769824;79;21021;-54
2020/12/24 07:06:49;;;;;;;34.75;17.77;;;;;;;1.12;100.00;99863.06;1768492;79;22316;-52
2020/12/24 07:09:28;;;;;;;27.95;15.38;;;;;;;1.11;100.00;99856.87;1766050;79;21536;-58
2020/12/24 07:11:57;;;;;;;26.80;14.28;;;;;;;1.10;100.00;99854.23;1758180;78;21013;-53
2020/12/24 07:14:37;;;;;;;28.77;15.32;;;;;;;1.08;100.00;99850.73;1753921;80;21053;-64
2020/12/24 07:17:19;;;;;;;30.05;16.23;;;;;;;1.08;100.00;99850.73;1755898;79;21056;-61
2020/12/24 07:19:50;;;;;;;38.08;17.57;;;;;;;1.10;100.00;99851.58;1756588;80;21374;-62
2020/12/24 07:22:18;;;;;;;27.02;14.15;;;;;;;1.10;100.00;99848.92;1763288;79;21458;-59
2020/12/24 07:24:48;;;;;;;30.12;15.72;;;;;;;1.08;100.00;99848.08;1755693;80;21034;-60
2020/12/24 07:27:16;;;;;;;31.75;15.35;;;;;;;1.08;100.00;99848.08;1754139;79;21508;-60
2020/12/24 07:29:46;;;;;;;28.27;14.63;;;;;;;1.07;100.00;99845.00;1756370;80;21163;-57
2020/12/24 07:32:13;;;;;;;30.40;15.45;;;;;;;1.10;100.00;99846.27;1783642;79;21371;-58
2020/12/24 07:34:41;;;;;;;27.07;14.73;;;;;;;1.10;100.00;99841.84;1786067;78;20990;-63
2020/12/24 07:37:09;;;;;;;32.38;14.90;;;;;;;1.12;100.00;99841.81;1755535;79;21532;-64
2020/12/24 07:39:37;;;;;;;30.97;17.27;;;;;;;1.13;100.00;99841.82;1755611;80;21133;-62
2020/12/24 07:42:04;;;;;;;27.95;15.65;;;;;;;1.13;100.00;99842.27;1785200;78;21149;-55
2020/12/24 07:44:33;;;;;;;33.53;16.32;;;;;;;1.14;100.00;99845.35;1757264;79;21362;-56
2020/12/24 07:47:02;;;;;;;29.60;15.00;;;;;;;1.15;100.00;99848.44;1755399;80;21627;-50
2020/12/24 07:49:29;;;;;;;30.02;15.80;;;;;;;1.18;100.00;99844.43;1734539;80;21088;-55
2020/12/24 07:51:58;;;;;;;29.70;15.30;;;;;;;1.18;100.00;99837.80;1746093;81;21113;-51
2020/12/24 07:54:29;;;;;;;36.45;16.95;;;;;;;1.17;100.00;99845.30;1741593;80;21044;-50
2020/12/24 07:56:56;;;;;;;25.92;14.13;;;;;;;1.17;100.00;99843.55;1744915;81;21431;-49
2020/12/24 07:59:25;;;;;;;30.00;15.58;;;;;;;1.18;100.00;99843.11;1741712;80;21156;-49
2020/12/24 08:02:04;;;;;;;32.50;17.12;;;;;;;1.17;100.00;99833.34;1718926;81;21548;-53
2020/12/24 08:04:33;;;;;;;30.62;16.77;;;;;;;1.18;100.00;99833.81;1743987;81;21514;-52
2020/12/24 08:07:01;;;;;;;29.27;15.58;;;;;;;1.17;100.00;99839.98;1744682;80;21178;-50
2020/12/24 08:09:31;;;;;;;32.80;15.18;;;;;;;1.18;100.00;99841.77;1748325;81;21901;-51
2020/12/24 08:11:59;;;;;;;32.28;15.88;;;;;;;1.18;100.00;99840.00;1747075;81;21434;-57
2020/12/24 08:14:28;;;;;;;29.05;15.50;;;;;;;1.19;100.00;99843.53;1743696;81;21196;-56
2020/12/24 08:17:18;;;;;;;28.10;13.90;;;;;;;1.18;100.00;99842.66;1745953;81;20975;-58
2020/12/24 08:20:02;;;;;;;30.43;15.10;;;;;;;1.17;100.00;99847.95;1730367;80;20961;-58
2020/12/24 08:22:41;;;;;;;31.00;15.78;;;;;;;1.18;100.00;99845.76;1746100;81;21386;-59
2020/12/24 08:25:10;;;;;;;35.98;15.68;;;;;;;1.18;100.00;99836.46;1737823;81;21103;-51
2020/12/24 08:27:38;;;;;;;32.23;15.53;;;;;;;1.20;100.00;99843.95;1738849;80;21164;-59
2020/12/24 08:30:06;;;;;;;30.15;15.15;;;;;;;1.21;100.00;99835.08;1747992;81;21141;-59
2020/12/24 08:32:34;;;;;;;27.37;13.53;;;;;;;1.19;100.00;99844.86;1747807;81;21141;-58
2020/12/24 08:35:12;;;;;;;31.60;15.10;;;;;;;1.19;100.00;99835.56;1689011;81;22095;-60
2020/12/24 08:37:40;;;;;;;30.65;15.48;;;;;;;1.18;100.00;99839.12;1737985;80;21554;-59
2020/12/24 08:40:25;;;;;;;30.65;14.10;;;;;;;1.19;100.00;99843.53;1745037;81;21198;-57
2020/12/24 08:43:00;;;;;;;29.92;15.58;;;;;;;1.17;100.00;99833.34;1743616;81;21113;-57
2020/12/24 08:45:27;;;;;;;26.90;15.20;;;;;;;1.16;100.00;99832.92;1735659;81;22145;-47
2020/12/24 08:47:55;;;;;;;27.32;14.85;;;;;;;1.13;100.00;99826.34;1744440;81;21447;-47
2020/12/24 08:50:36;;;;;;;27.75;15.58;;;;;;;1.12;100.00;99828.53;1754142;80;21557;-47
2020/12/24 08:53:05;;;;;;;27.13;13.72;;;;;;;1.12;100.00;99815.25;1803098;78;21772;-49
2020/12/24 08:55:34;;;;;;;25.23;12.80;;;;;;;1.12;100.00;99817.91;1803427;77;21144;-47
2020/12/24 08:58:01;;;;;;;21.68;12.53;;;;;;;1.09;100.00;99804.69;1800961;77;20942;-59
2020/12/24 09:00:30;;;;;;;22.58;13.10;;;;;;;1.08;100.00;99804.26;1800019;77;21376;-57
2020/12/24 09:02:58;;;;;;;23.67;13.48;;;;;;;1.09;100.00;99804.69;1801546;77;20998;-55
2020/12/24 09:05:26;;;;;;;21.35;12.05;;;;;;;1.07;100.00;99796.74;1767333;80;21676;-60
2020/12/24 09:07:54;;;;;;;20.70;12.45;;;;;;;1.04;100.00;99792.33;1765524;80;21144;-56
2020/12/24 09:10:26;;;;;;;19.30;11.20;;;;;;;1.04;100.00;99789.67;1734815;80;21001;-58
2020/12/24 09:13:01;;;;;;;23.65;13.32;;;;;;;1.03;100.00;99793.23;1724319;81;21383;-62
2020/12/24 09:15:29;;;;;;;22.77;12.85;;;;;;;1.04;100.00;99797.64;1734814;81;21147;-64
2020/12/24 09:17:59;;;;;;;23.87;13.68;;;;;;;1.08;100.00;99781.69;1745560;81;21010;-65
2020/12/24 09:20:31;;;;;;;19.73;12.58;;;;;;;1.09;100.00;99792.28;1752183;81;21153;-61
2020/12/24 09:23:01;;;;;;;20.27;12.40;;;;;;;1.12;100.00;99790.02;1739723;80;21008;-59
2020/12/24 09:25:41;;;;;;;19.12;12.05;;;;;;;1.14;100.00;99786.92;1745961;81;21473;-62
2020/12/24 09:28:28;;;;;;;24.57;12.50;;;;;;;1.16;100.00;99785.12;1757463;79;21065;-62
2020/12/24 09:30:59;;;;;;;18.85;12.88;;;;;;;1.15;100.00;99788.67;1759749;79;21545;-63
2020/12/24 09:33:33;;;;;;;20.05;12.03;;;;;;;1.20;100.00;99780.20;1811787;76;23323;-61
2020/12/24 09:36:03;;;;;;;22.30;13.65;;;;;;;1.15;100.00;99778.93;1771346;78;21040;-52
2020/12/24 09:38:31;;;;;;;21.52;14.35;;;;;;;1.18;100.00;99784.67;1772948;79;22159;-53
2020/12/24 09:41:00;;;;;;;21.50;13.25;;;;;;;1.17;100.00;99771.84;1771027;78;20985;-57
2020/12/24 09:43:29;;;;;;;18.85;12.45;;;;;;;1.13;100.00;99756.83;1771245;79;21152;-55
2020/12/24 09:45:57;;;;;;;20.30;12.73;;;;;;;1.13;100.00;99767.91;1769097;78;20990;-55
2020/12/24 09:48:24;;;;;;;22.82;13.25;;;;;;;1.12;100.00;99769.69;1771700;79;20966;-49
2020/12/24 09:50:52;;;;;;;18.32;12.40;;;;;;;1.14;100.00;99756.38;1772388;79;21189;-47
2020/12/24 09:53:20;;;;;;;21.35;12.30;;;;;;;1.16;100.00;99753.24;1772562;79;21017;-48
2020/12/24 09:55:47;;;;;;;21.42;13.00;;;;;;;1.17;100.00;99752.34;1771890;79;20986;-53
2020/12/24 09:58:15;;;;;;;21.05;12.88;;;;;;;1.20;100.00;99749.66;1773591;78;21504;-52
2020/12/24 10:00:43;;;;;;;23.92;14.90;;;;;;;1.21;100.00;99743.45;1775061;79;21112;-53
2020/12/24 10:03:11;;;;;;;18.05;13.93;;;;;;;1.22;100.00;99738.10;1771273;78;21378;-49
2020/12/24 10:05:39;;;;;;;20.27;14.65;;;;;;;1.24;100.00;99738.11;1773357;78;21024;-52
2020/12/24 10:08:07;;;;;;;19.17;12.88;;;;;;;1.25;100.00;99730.56;1774259;78;21979;-57
2020/12/24 10:10:35;;;;;;;17.75;13.22;;;;;;;1.31;100.00;99723.84;1749301;79;21525;-57
2020/12/24 10:13:03;;;;;;;19.75;12.47;;;;;;;1.33;100.00;99730.00;1773046;78;21169;-57
2020/12/24 10:15:31;;;;;;;21.57;14.07;;;;;;;1.35;100.00;99722.91;1772568;79;21195;-55
2020/12/24 10:17:59;;;;;;;24.07;15.93;;;;;;;1.35;100.00;99717.59;1771580;78;21754;-54
2020/12/24 10:20:27;;;;;;;30.10;17.25;;;;;;;1.35;100.00;99714.94;1774054;79;20962;-51
2020/12/24 10:22:55;;;;;;;26.62;16.32;;;;;;;1.33;100.00;99703.42;1772166;79;21120;-52
2020/12/24 10:25:22;;;;;;;23.85;15.18;;;;;;;1.33;100.00;99703.42;1773687;78;20982;-57
2020/12/24 10:27:50;;;;;;;32.48;18.73;;;;;;;1.36;100.00;99696.76;1772880;79;21151;-61
2020/12/24 10:30:18;;;;;;;33.28;20.15;;;;;;;1.35;100.00;99688.37;1772483;78;20965;-59
2020/12/24 10:32:46;;;;;;;26.37;16.67;;;;;;;1.34;100.00;99689.27;1772526;79;21678;-52
2020/12/24 10:35:14;;;;;;;31.77;17.98;;;;;;;1.33;100.00;99679.52;1771694;78;21167;-58
2020/12/24 10:37:41;;;;;;;28.20;17.95;;;;;;;1.32;100.00;99681.75;1772477;79;20970;-59
2020/12/24 10:40:09;;;;;;;27.80;18.45;;;;;;;1.31;100.00;99683.98;1773306;78;22068;-59
2020/12/24 10:42:40;;;;;;;29.02;18.20;;;;;;;1.34;100.00;99683.96;1773762;79;21164;-61
2020/12/24 10:45:09;;;;;;;28.80;18.60;;;;;;;1.40;100.00;99686.52;1775020;79;21162;-60
2020/12/24 10:47:37;;;;;;;26.17;15.00;;;;;;;1.38;100.00;99672.36;1773262;79;21647;-64
2020/12/24 10:50:05;;;;;;;25.90;15.45;;;;;;;1.36;100.00;99670.19;1769712;78;21479;-62
2020/12/24 10:52:33;;;;;;;25.43;16.25;;;;;;;1.34;100.00;99672.01;1769421;79;21352;-59
2020/12/24 10:55:04;;;;;;;24.87;15.72;;;;;;;1.33;100.00;99673.33;1771078;79;21001;-59
2020/12/24 10:57:32;;;;;;;25.82;15.75;;;;;;;1.31;100.00;99661.41;1773226;79;21128;-59
2020/12/24 11:00:00;;;;;;;28.83;17.65;;;;;;;1.31;100.00;99661.41;1773946;79;20998;-64
2020/12/24 11:02:28;;;;;;;24.95;15.60;;;;;;;1.32;100.00;99659.17;1771466;78;20977;-61
2020/12/24 11:04:56;;;;;;;34.88;21.42;;;;;;;1.35;100.00;99645.86;1743655;79;21304;-57
2020/12/24 11:07:24;;;;;;;48.48;26.90;;;;;;;1.38;100.00;99640.48;1771160;79;20997;-56
2020/12/24 11:09:53;;;;;;;56.00;30.35;;;;;;;1.38;100.00;99642.27;1774169;79;20953;-59
2020/12/24 11:12:21;;;;;;;57.38;31.62;;;;;;;1.36;100.00;99641.42;1770307;78;21111;-55
2020/12/24 11:14:49;;;;;;;53.98;30.40;;;;;;;1.37;100.00;99637.86;1776051;78;21525;-53
2020/12/24 11:17:17;;;;;;;50.43;29.60;;;;;;;1.36;100.00;99636.11;1772593;78;21191;-50
2020/12/24 11:19:46;;;;;;;53.73;29.80;;;;;;;1.32;100.00;99632.61;1772900;78;21054;-62
2020/12/24 11:22:14;;;;;;;45.45;28.40;;;;;;;1.31;100.00;99626.87;1773044;79;21640;-51
2020/12/24 11:24:42;;;;;;;58.10;31.30;;;;;;;1.31;100.00;99630.86;1771855;79;20978;-53
2020/12/24 11:27:09;;;;;;;52.38;29.25;;;;;;;1.29;100.00;99624.70;1774607;79;21520;-55
2020/12/24 11:29:37;;;;;;;48.48;27.15;;;;;;;1.28;100.00;99633.58;1775865;79;22247;-52
2020/12/24 11:32:05;;;;;;;53.28;29.10;;;;;;;1.28;100.00;99621.63;1774408;78;21231;-59
2020/12/24 11:34:34;;;;;;;46.23;26.15;;;;;;;1.26;100.00;99611.45;1761743;79;21136;-52